Time;durP1;ratioP1;P1;durP2;ratioP2;P2;SDS_P1;SDS_P2;PMS_P1;PMS_P2;Temp;Humidity;BMP_temperature;BMP_pressure;BME280_temperature;BME280_humidity;BME280_pressure;Samples;Min_cycle;Max_cycle;Signal;HPM_P1;HPM_P2
2022/12/21 00:01:48;;;;;;;;;;;;;;;;;;5028188;28;20426;-75
2022/12/21 00:04:35;;;;;;;;;;;;;;;;;;5027466;28;19913;-77
2022/12/21 00:07:21;;;;;;;;;;;;;;;;;;5038918;28;19920;-77
2022/12/21 00:10:08;;;;;;;;;;;;;;;;;;5034077;28;20335;-75
2022/12/21 00:12:54;;;;;;;;;;;;;;;;;;5021365;28;19917;-74
2022/12/21 00:15:41;;;;;;;;;;;;;;;;;;5032905;28;19913;-75
2022/12/21 00:18:27;;;;;;;;;;;;;;;;;;5044727;28;19916;-75
2022/12/21 00:21:14;;;;;;;;;;;;;;;;;;5039498;28;19941;-75
2022/12/21 00:24:00;;;;;;;;;;;;;;;;;;5031579;28;19922;-75
2022/12/21 00:26:49;;;;;;;;;;;;;;;;;;5028438;28;19909;-76
2022/12/21 00:29:36;;;;;;;;;;;;;;;;;;5028300;28;19924;-76
2022/12/21 00:32:22;;;;;;;;;;;;;;;;;;5044548;28;19913;-76
2022/12/21 00:35:09;;;;;;;;;;;;;;;;;;5046674;28;19940;-76
2022/12/21 00:37:55;;;;;;;;;;;;;;;;;;5036877;28;19909;-76
2022/12/21 00:40:42;;;;;;;;;;;;;;;;;;5034351;28;19913;-77
2022/12/21 00:43:28;;;;;;;;;;;;;;;;;;5033908;28;19936;-76
2022/12/21 00:46:15;;;;;;;;;;;;;;;;;;5031594;28;19931;-76
2022/12/21 00:49:01;;;;;;;;;;;;;;;;;;5031385;28;19931;-76
2022/12/21 00:51:48;;;;;;;;;;;;;;;;;;5030091;28;19931;-76
2022/12/21 00:54:35;;;;;;;;;;;;;;;;;;5025392;28;19921;-76
2022/12/21 00:57:21;;;;;;;;;;;;;;;;;;5036033;28;20357;-75
2022/12/21 01:00:09;;;;;;;;;;;;;;;;;;5032933;28;19917;-76
2022/12/21 01:02:55;;;;;;;;;;;;;;;;;;5031030;28;20368;-76
2022/12/21 01:05:42;;;;;;;;;;;;;;;;;;5030439;28;19909;-75
2022/12/21 01:08:28;;;;;;;;;;;;;;;;;;5036271;28;19913;-77
2022/12/21 01:11:15;;;;;;;;;;;;;;;;;;5029920;28;19908;-75
2022/12/21 01:14:01;;;;;;;;;;;;;;;;;;5029140;28;19943;-75
2022/12/21 01:16:48;;;;;;;;;;;;;;;;;;5040884;28;19920;-75
2022/12/21 01:19:34;;;;;;;;;;;;;;;;;;5025435;28;19931;-76
2022/12/21 01:22:21;;;;;;;;;;;;;;;;;;5031245;28;20384;-75
2022/12/21 01:25:08;;;;;;;;;;;;;;;;;;5041024;28;19908;-76
2022/12/21 01:27:54;;;;;;;;;;;;;;;;;;5030292;28;20297;-76
2022/12/21 01:30:41;;;;;;;;;;;;;;;;;;5047288;28;19923;-76
2022/12/21 01:33:30;;;;;;;;;;;;;;;;;;5038046;28;19935;-75
2022/12/21 01:36:17;;;;;;;;;;;;;;;;;;5032710;28;19916;-77
2022/12/21 01:39:03;;;;;;;;;;;;;;;;;;5045958;28;19919;-76
2022/12/21 01:41:50;;;;;;;;;;;;;;;;;;5035549;28;19924;-76
2022/12/21 01:44:36;;;;;;;;;;;;;;;;;;5032349;28;19919;-77
2022/12/21 01:47:23;;;;;;;;;;;;;;;;;;5044999;28;19917;-77
2022/12/21 01:50:09;;;;;;;;;;;;;;;;;;5042718;28;19924;-75
2022/12/21 01:52:55;;;;;;;;;;;;;;;;;;5039365;28;19925;-76
2022/12/21 01:55:42;;;;;;;;;;;;;;;;;;5033224;28;19913;-76
2022/12/21 01:58:28;;;;;;;;;;;;;;;;;;5033194;28;19917;-77
2022/12/21 02:01:15;;;;;;;;;;;;;;;;;;5042951;28;19924;-76
2022/12/21 02:04:01;;;;;;;;;;;;;;;;;;5046915;28;20364;-76
2022/12/21 02:06:48;;;;;;;;;;;;;;;;;;5043255;28;20296;-77
2022/12/21 02:09:34;;;;;;;;;;;;;;;;;;5029826;28;19913;-75
2022/12/21 02:12:21;;;;;;;;;;;;;;;;;;5035914;28;19931;-76
2022/12/21 02:15:07;;;;;;;;;;;;;;;;;;5040378;28;19929;-77
2022/12/21 02:17:54;;;;;;;;;;;;;;;;;;5043022;28;19917;-76
2022/12/21 02:20:40;;;;;;;;;;;;;;;;;;5027953;28;19932;-77
2022/12/21 02:23:27;;;;;;;;;;;;;;;;;;5037445;28;19909;-77
2022/12/21 02:26:13;;;;;;;;;;;;;;;;;;5029537;28;19921;-77
2022/12/21 02:28:59;;;;;;;;;;;;;;;;;;5050556;28;20285;-78
2022/12/21 02:31:46;;;;;;;;;;;;;;;;;;5031401;28;19914;-76
2022/12/21 02:34:32;;;;;;;;;;;;;;;;;;5033893;28;19917;-78
2022/12/21 02:37:19;;;;;;;;;;;;;;;;;;5038974;28;19921;-77
2022/12/21 02:40:05;;;;;;;;;;;;;;;;;;5020271;28;20400;-77
2022/12/21 02:45:57;;;;;;;;;;;;;;;;;;5031120;28;19913;-76
2022/12/21 02:48:43;;;;;;;;;;;;;;;;;;5035598;28;20380;-77
2022/12/21 02:51:30;;;;;;;;;;;;;;;;;;5045742;28;19913;-77
2022/12/21 02:54:16;;;;;;;;;;;;;;;;;;5037622;28;19921;-76
2022/12/21 02:57:03;;;;;;;;;;;;;;;;;;5030385;28;20416;-77
2022/12/21 02:59:49;;;;;;;;;;;;;;;;;;5041339;28;19913;-77
2022/12/21 03:02:36;;;;;;;;;;;;;;;;;;5023811;28;19913;-77
2022/12/21 03:05:22;;;;;;;;;;;;;;;;;;5035479;28;19913;-77
2022/12/21 03:08:09;;;;;;;;;;;;;;;;;;5035731;28;19917;-77
2022/12/21 03:10:55;;;;;;;;;;;;;;;;;;5034206;28;19921;-77
2022/12/21 03:13:42;;;;;;;;;;;;;;;;;;5030378;28;19925;-76
2022/12/21 03:16:28;;;;;;;;;;;;;;;;;;5034459;28;19910;-77
2022/12/21 03:19:15;;;;;;;;;;;;;;;;;;5022289;28;20293;-76
2022/12/21 03:22:01;;;;;;;;;;;;;;;;;;5041418;28;19924;-75
2022/12/21 03:24:48;;;;;;;;;;;;;;;;;;5038700;28;19909;-75
2022/12/21 03:27:34;;;;;;;;;;;;;;;;;;5041155;28;20142;-75
2022/12/21 03:30:21;;;;;;;;;;;;;;;;;;5029864;28;19925;-76
2022/12/21 03:33:08;;;;;;;;;;;;;;;;;;5033625;28;19921;-76
2022/12/21 03:35:54;;;;;;;;;;;;;;;;;;5014717;28;20335;-77
2022/12/21 03:38:40;;;;;;;;;;;;;;;;;;5041253;28;20368;-77
2022/12/21 03:41:27;;;;;;;;;;;;;;;;;;5037535;28;19908;-77
2022/12/21 03:44:15;;;;;;;;;;;;;;;;;;5023183;28;19955;-77
2022/12/21 03:47:01;;;;;;;;;;;;;;;;;;5034459;28;19917;-78
2022/12/21 03:49:47;;;;;;;;;;;;;;;;;;5018844;28;20360;-77
2022/12/21 03:52:34;;;;;;;;;;;;;;;;;;5042037;28;19917;-76
2022/12/21 03:55:20;;;;;;;;;;;;;;;;;;5042811;28;20658;-77
2022/12/21 03:58:07;;;;;;;;;;;;;;;;;;5030499;28;19916;-77
2022/12/21 04:00:53;;;;;;;;;;;;;;;;;;5039645;28;19916;-79
2022/12/21 04:03:40;;;;;;;;;;;;;;;;;;5040845;28;19913;-75
2022/12/21 04:06:26;;;;;;;;;;;;;;;;;;5035616;28;19939;-76
2022/12/21 04:09:13;;;;;;;;;;;;;;;;;;5040091;28;19913;-77
2022/12/21 04:15:04;;;;;;;;;;;;;;;;;;5034559;28;19925;-77
2022/12/21 04:17:51;;;;;;;;;;;;;;;;;;5040088;28;20276;-76
2022/12/21 04:20:37;;;;;;;;;;;;;;;;;;5036480;28;19924;-75
2022/12/21 04:29:34;;;;;;;;;;;;;;;;;;5043114;28;20459;-77
2022/12/21 04:32:20;;;;;;;;;;;;;;;;;;5044625;28;19915;-76
2022/12/21 04:35:07;;;;;;;;;;;;;;;;;;5040399;28;19931;-75
2022/12/21 04:37:53;;;;;;;;;;;;;;;;;;5040634;28;20322;-76
2022/12/21 04:40:40;;;;;;;;;;;;;;;;;;5038125;28;19927;-75
2022/12/21 04:43:26;;;;;;;;;;;;;;;;;;5043624;28;19931;-77
2022/12/21 04:46:13;;;;;;;;;;;;;;;;;;5038202;28;20413;-76
2022/12/21 04:48:59;;;;;;;;;;;;;;;;;;5041571;28;19917;-75
2022/12/21 04:51:46;;;;;;;;;;;;;;;;;;5039751;28;19917;-74
2022/12/21 04:54:32;;;;;;;;;;;;;;;;;;5024456;28;19925;-75
2022/12/21 04:57:19;;;;;;;;;;;;;;;;;;5038170;28;20461;-75
2022/12/21 05:00:06;;;;;;;;;;;;;;;;;;5037885;28;19913;-74
2022/12/21 05:02:52;;;;;;;;;;;;;;;;;;5042805;28;19928;-74
2022/12/21 05:05:39;;;;;;;;;;;;;;;;;;5043874;28;19917;-75
2022/12/21 05:08:25;;;;;;;;;;;;;;;;;;5044871;28;20382;-75
2022/12/21 05:11:12;;;;;;;;;;;;;;;;;;5041434;28;19921;-75
2022/12/21 05:13:58;;;;;;;;;;;;;;;;;;5027739;28;19924;-77
2022/12/21 05:16:45;;;;;;;;;;;;;;;;;;5042233;28;19917;-75
2022/12/21 05:19:31;;;;;;;;;;;;;;;;;;5042732;28;20038;-77
2022/12/21 05:22:18;;;;;;;;;;;;;;;;;;5029391;28;19916;-76
2022/12/21 05:25:04;;;;;;;;;;;;;;;;;;5040473;28;19924;-75
2022/12/21 05:27:51;;;;;;;;;;;;;;;;;;5041827;28;19939;-75
2022/12/21 05:30:37;;;;;;;;;;;;;;;;;;5044546;28;19920;-76
2022/12/21 05:33:24;;;;;;;;;;;;;;;;;;5040360;28;20296;-77
2022/12/21 05:36:10;;;;;;;;;;;;;;;;;;5044436;28;19917;-77
2022/12/21 05:38:57;;;;;;;;;;;;;;;;;;5041773;28;20256;-76
2022/12/21 05:41:43;;;;;;;;;;;;;;;;;;5046083;28;19919;-76
2022/12/21 05:44:30;;;;;;;;;;;;;;;;;;5046916;28;19921;-76
2022/12/21 05:47:16;;;;;;;;;;;;;;;;;;5037060;28;19924;-77
2022/12/21 05:50:03;;;;;;;;;;;;;;;;;;5039800;28;19951;-76
2022/12/21 05:52:49;;;;;;;;;;;;;;;;;;5038308;28;19916;-77
2022/12/21 05:55:36;;;;;;;;;;;;;;;;;;5041991;28;19925;-77
2022/12/21 05:58:23;;;;;;;;;;;;;;;;;;5033420;28;19920;-76
2022/12/21 06:01:09;;;;;;;;;;;;;;;;;;5027777;28;19917;-76
2022/12/21 06:03:56;;;;;;;;;;;;;;;;;;5034764;28;19913;-77
2022/12/21 06:06:42;;;;;;;;;;;;;;;;;;5032786;28;19927;-76
2022/12/21 06:09:29;;;;;;;;;;;;;;;;;;5031690;28;19917;-77
2022/12/21 06:12:15;;;;;;;;;;;;;;;;;;5037099;28;19917;-76
2022/12/21 06:15:02;;;;;;;;;;;;;;;;;;5039719;28;19924;-76
2022/12/21 06:17:48;;;;;;;;;;;;;;;;;;5039228;28;20435;-76
2022/12/21 06:20:34;;;;;;;;;;;;;;;;;;5040857;28;19917;-76
2022/12/21 06:23:21;;;;;;;;;;;;;;;;;;5043602;28;19915;-77
2022/12/21 06:26:07;;;;;;;;;;;;;;;;;;5038565;28;19924;-76
2022/12/21 06:28:54;;;;;;;;;;;;;;;;;;5041753;28;19928;-77
2022/12/21 06:31:40;;;;;;;;;;;;;;;;;;5039557;28;20377;-77
2022/12/21 06:34:27;;;;;;;;;;;;;;;;;;5024273;28;19932;-75
2022/12/21 06:37:13;;;;;;;;;;;;;;;;;;5036351;28;20284;-76
2022/12/21 06:40:00;;;;;;;;;;;;;;;;;;5032145;28;19913;-77
2022/12/21 06:42:46;;;;;;;;;;;;;;;;;;5038573;28;20316;-76
2022/12/21 06:45:33;;;;;;;;;;;;;;;;;;5044577;28;19928;-76
2022/12/21 06:48:19;;;;;;;;;;;;;;;;;;5040547;28;19917;-76
2022/12/21 06:51:06;;;;;;;;;;;;;;;;;;5042061;28;19917;-76
2022/12/21 06:53:52;;;;;;;;;;;;;;;;;;5040419;28;19925;-77
2022/12/21 06:56:39;;;;;;;;;;;;;;;;;;5040219;28;20304;-77
2022/12/21 06:59:25;;;;;;;;;;;;;;;;;;5039946;28;20300;-76
2022/12/21 07:02:12;;;;;;;;;;;;;;;;;;5038040;28;19913;-77
2022/12/21 07:04:58;;;;;;;;;;;;;;;;;;5034840;28;20258;-76
2022/12/21 07:07:45;;;;;;;;;;;;;;;;;;5039049;28;19913;-78
2022/12/21 07:10:31;;;;;;;;;;;;;;;;;;5035160;28;20673;-77
2022/12/21 07:13:18;;;;;;;;;;;;;;;;;;5042027;28;19923;-77
2022/12/21 07:16:20;;;;;;;;;;;;;;;;;;5040461;28;20288;-78
2022/12/21 07:19:06;;;;;;;;;;;;;;;;;;5021522;28;20593;-77
2022/12/21 07:21:53;;;;;;;;;;;;;;;;;;5038061;28;19928;-77
2022/12/21 07:24:39;;;;;;;;;;;;;;;;;;5027716;28;19924;-78
2022/12/21 07:27:26;;;;;;;;;;;;;;;;;;5029247;28;19917;-77
2022/12/21 07:30:12;;;;;;;;;;;;;;;;;;5028921;28;19917;-77
2022/12/21 07:32:59;;;;;;;;;;;;;;;;;;5032886;28;19912;-76
2022/12/21 07:35:46;;;;;;;;;;;;;;;;;;5036063;28;19925;-77
2022/12/21 07:38:32;;;;;;;;;;;;;;;;;;5034232;28;19923;-79
2022/12/21 07:41:19;;;;;;;;;;;;;;;;;;5029492;28;20399;-78
2022/12/21 07:44:05;;;;;;;;;;;;;;;;;;5035663;28;19925;-79
2022/12/21 07:46:52;;;;;;;;;;;;;;;;;;5031067;28;19920;-77
2022/12/21 07:49:39;;;;;;;;;;;;;;;;;;5026891;28;19912;-77
2022/12/21 07:52:25;;;;;;;;;;;;;;;;;;5037305;28;19924;-78
2022/12/21 07:55:12;;;;;;;;;;;;;;;;;;5041282;28;20269;-77
2022/12/21 07:57:58;;;;;;;;;;;;;;;;;;5045501;28;19924;-75
2022/12/21 08:00:46;;;;;;;;;;;;;;;;;;5038526;28;19917;-78
2022/12/21 08:03:35;;;;;;;;;;;;;;;;;;5029308;28;19916;-79
2022/12/21 08:06:21;;;;;;;;;;;;;;;;;;5034201;28;19909;-76
2022/12/21 08:09:08;;;;;;;;;;;;;;;;;;5035749;28;19928;-77
2022/12/21 08:11:55;;;;;;;;;;;;;;;;;;5035560;28;20288;-78
2022/12/21 08:14:41;;;;;;;;;;;;;;;;;;5038907;28;19921;-77
2022/12/21 08:17:28;;;;;;;;;;;;;;;;;;5036733;28;19920;-78
2022/12/21 08:20:14;;;;;;;;;;;;;;;;;;5041507;28;20433;-78
2022/12/21 08:23:01;;;;;;;;;;;;;;;;;;5034419;28;20666;-77
2022/12/21 08:25:47;;;;;;;;;;;;;;;;;;5030116;28;19909;-77
2022/12/21 08:28:34;;;;;;;;;;;;;;;;;;5049408;28;19923;-77
2022/12/21 08:31:20;;;;;;;;;;;;;;;;;;5041698;28;19913;-78
2022/12/21 08:34:07;;;;;;;;;;;;;;;;;;5035425;28;19912;-78
2022/12/21 08:36:56;;;;;;;;;;;;;;;;;;5031596;28;20552;-77
2022/12/21 08:39:43;;;;;;;;;;;;;;;;;;5048440;28;20380;-79
2022/12/21 08:42:29;;;;;;;;;;;;;;;;;;5048213;28;19931;-77
2022/12/21 08:45:16;;;;;;;;;;;;;;;;;;5034085;28;19917;-80
2022/12/21 08:48:02;;;;;;;;;;;;;;;;;;5032809;28;19927;-76
2022/12/21 08:50:49;;;;;;;;;;;;;;;;;;5031945;28;19924;-77
2022/12/21 08:53:35;;;;;;;;;;;;;;;;;;5046680;28;20296;-77
2022/12/21 08:56:22;;;;;;;;;;;;;;;;;;5042494;28;19917;-77
2022/12/21 08:59:08;;;;;;;;;;;;;;;;;;5047988;28;20270;-78
2022/12/21 09:01:55;;;;;;;;;;;;;;;;;;5043497;28;20348;-76
2022/12/21 09:04:42;;;;;;;;;;;;;;;;;;5045708;28;19912;-77
2022/12/21 09:07:28;;;;;;;;;;;;;;;;;;5039643;28;19924;-78
2022/12/21 09:10:15;;;;;;;;;;;;;;;;;;5043686;28;19924;-77
2022/12/21 09:13:02;;;;;;;;;;;;;;;;;;5049008;28;19909;-78
2022/12/21 09:15:48;;;;;;;;;;;;;;;;;;5039180;28;19947;-77
2022/12/21 09:18:34;;;;;;;;;;;;;;;;;;5047242;28;19917;-78
2022/12/21 09:21:21;;;;;;;;;;;;;;;;;;5034188;28;19909;-77
2022/12/21 09:24:08;;;;;;;;;;;;;;;;;;5038059;28;19909;-77
2022/12/21 09:26:54;;;;;;;;;;;;;;;;;;5050005;28;19917;-77
2022/12/21 09:29:41;;;;;;;;;;;;;;;;;;5030367;28;19916;-77
2022/12/21 09:32:27;;;;;;;;;;;;;;;;;;5044826;28;19935;-78
2022/12/21 09:35:14;;;;;;;;;;;;;;;;;;5047354;28;19924;-78
2022/12/21 09:38:00;;;;;;;;;;;;;;;;;;5038159;28;20478;-78
2022/12/21 09:40:47;;;;;;;;;;;;;;;;;;5039493;28;19921;-78
2022/12/21 09:43:33;;;;;;;;;;;;;;;;;;5016666;28;19929;-77
2022/12/21 09:46:20;;;;;;;;;;;;;;;;;;5042630;28;19916;-76
2022/12/21 09:49:06;;;;;;;;;;;;;;;;;;5045438;28;19921;-77
2022/12/21 09:51:53;;;;;;;;;;;;;;;;;;5033446;28;19923;-77
2022/12/21 09:54:39;;;;;;;;;;;;;;;;;;5036935;28;19920;-77
2022/12/21 09:57:26;;;;;;;;;;;;;;;;;;5035095;28;19917;-78
2022/12/21 10:00:13;;;;;;;;;;;;;;;;;;5047738;28;19924;-76
2022/12/21 10:02:59;;;;;;;;;;;;;;;;;;5037644;28;19917;-76
2022/12/21 10:05:46;;;;;;;;;;;;;;;;;;5043362;28;19924;-76
2022/12/21 10:08:32;;;;;;;;;;;;;;;;;;5047360;28;19924;-78
2022/12/21 10:11:19;;;;;;;;;;;;;;;;;;5044166;28;19917;-78
2022/12/21 10:14:05;;;;;;;;;;;;;;;;;;5046419;28;19935;-78
2022/12/21 10:17:00;;;;;;;;;;;;;;;;;;5033947;28;19924;-79
2022/12/21 10:19:46;;;;;;;;;;;;;;;;;;5037217;28;20675;-78
2022/12/21 10:22:33;;;;;;;;;;;;;;;;;;5039391;28;19917;-79
2022/12/21 10:25:19;;;;;;;;;;;;;;;;;;5030950;28;20385;-78
2022/12/21 10:28:06;;;;;;;;;;;;;;;;;;5021416;28;19913;-79
2022/12/21 10:30:52;;;;;;;;;;;;;;;;;;5030324;28;19932;-79
2022/12/21 10:33:39;;;;;;;;;;;;;;;;;;5038669;28;20567;-79
2022/12/21 10:36:25;;;;;;;;;;;;;;;;;;5042083;28;19913;-79
2022/12/21 10:39:11;;;;;;;;;;;;;;;;;;5045588;28;19932;-79
2022/12/21 10:41:58;;;;;;;;;;;;;;;;;;5045216;28;20280;-79
2022/12/21 10:44:44;;;;;;;;;;;;;;;;;;5040375;28;20024;-79
2022/12/21 10:47:31;;;;;;;;;;;;;;;;;;5042376;28;19913;-79
2022/12/21 10:50:17;;;;;;;;;;;;;;;;;;5038707;28;19939;-80
2022/12/21 10:53:04;;;;;;;;;;;;;;;;;;5037807;28;19916;-80
2022/12/21 10:55:50;;;;;;;;;;;;;;;;;;5039902;28;19925;-80
2022/12/21 10:58:37;;;;;;;;;;;;;;;;;;5030417;28;19917;-81
2022/12/21 11:01:23;;;;;;;;;;;;;;;;;;5033873;28;19928;-78
2022/12/21 11:04:10;;;;;;;;;;;;;;;;;;5030669;28;20292;-79
2022/12/21 11:06:57;;;;;;;;;;;;;;;;;;5043075;28;19928;-79
2022/12/21 11:09:43;;;;;;;;;;;;;;;;;;5042752;28;19943;-79
2022/12/21 11:12:30;;;;;;;;;;;;;;;;;;5036467;28;19923;-79
2022/12/21 11:15:16;;;;;;;;;;;;;;;;;;5022811;28;19925;-77
2022/12/21 11:18:03;;;;;;;;;;;;;;;;;;5039810;28;20439;-79
2022/12/21 11:21:03;;;;;;;;;;;;;;;;;;5106074;27;19927;-78
2022/12/21 11:23:49;;;;;;;;;;;;;;;;;;5089194;28;19916;-83
2022/12/21 11:26:38;;;;;;;;;;;;;;;;;;5100368;28;19918;-83
2022/12/21 11:29:24;;;;;;;;;;;;;;;;;;5096991;28;20012;-82
2022/12/21 11:32:11;;;;;;;;;;;;;;;;;;5115813;27;19914;-82
2022/12/21 11:34:57;;;;;;;;;;;;;;;;;;5104262;28;19911;-82
2022/12/21 11:37:44;;;;;;;;;;;;;;;;;;5114050;27;20382;-81
2022/12/21 11:40:30;;;;;;;;;;;;;;;;;;5111469;28;19923;-82
2022/12/21 11:43:17;;;;;;;;;;;;;;;;;;5133596;27;20361;-81
2022/12/21 11:46:03;;;;;;;;;;;;;;;;;;5105409;27;20300;-80
2022/12/21 11:48:50;;;;;;;;;;;;;;;;;;5111365;27;19919;-81
2022/12/21 11:51:36;;;;;;;;;;;;;;;;;;5118654;28;20065;-81
2022/12/21 11:54:23;;;;;;;;;;;;;;;;;;5115462;27;19912;-81
2022/12/21 11:57:09;;;;;;;;;;;;;;;;;;5120267;27;19916;-81
2022/12/21 11:59:56;;;;;;;;;;;;;;;;;;5117780;28;19926;-80
2022/12/21 12:02:42;;;;;;;;;;;;;;;;;;5108433;28;20368;-82
2022/12/21 12:05:29;;;;;;;;;;;;;;;;;;5109648;27;19927;-81
2022/12/21 12:08:16;;;;;;;;;;;;;;;;;;5114934;27;19938;-81
2022/12/21 12:11:02;;;;;;;;;;;;;;;;;;5111478;27;20264;-80
2022/12/21 12:13:48;;;;;;;;;;;;;;;;;;5110936;27;19923;-81
2022/12/21 12:16:35;;;;;;;;;;;;;;;;;;5109779;28;19919;-81
2022/12/21 12:19:21;;;;;;;;;;;;;;;;;;5111342;27;19923;-80
2022/12/21 12:22:08;;;;;;;;;;;;;;;;;;5119778;27;19915;-80
2022/12/21 12:24:54;;;;;;;;;;;;;;;;;;5113569;27;19926;-79
2022/12/21 12:27:41;;;;;;;;;;;;;;;;;;5099923;28;19962;-79
2022/12/21 12:30:27;;;;;;;;;;;;;;;;;;5105927;27;19962;-76
2022/12/21 12:33:17;;;;;;;;;;;;;;;;;;5109002;27;19929;-77
2022/12/21 12:36:03;;;;;;;;;;;;;;;;;;5107083;27;20401;-78
2022/12/21 12:38:50;;;;;;;;;;;;;;;;;;5098231;28;20423;-79
2022/12/21 12:41:37;;;;;;;;;;;;;;;;;;5098590;27;19935;-79
2022/12/21 12:44:23;;;;;;;;;;;;;;;;;;5101978;27;19912;-80
2022/12/21 12:47:10;;;;;;;;;;;;;;;;;;5096723;28;19911;-78
2022/12/21 12:49:56;;;;;;;;;;;;;;;;;;5098087;27;19908;-78
2022/12/21 12:52:43;;;;;;;;;;;;;;;;;;5105143;28;19920;-80
2022/12/21 12:55:29;;;;;;;;;;;;;;;;;;5099133;28;19922;-79
2022/12/21 12:58:16;;;;;;;;;;;;;;;;;;5091331;28;19916;-80
2022/12/21 13:01:02;;;;;;;;;;;;;;;;;;5100155;28;19943;-79
2022/12/21 13:03:49;;;;;;;;;;;;;;;;;;5106084;28;19912;-80
2022/12/21 13:06:36;;;;;;;;;;;;;;;;;;5109072;28;20291;-79
2022/12/21 13:09:22;;;;;;;;;;;;;;;;;;5100266;27;19918;-78
2022/12/21 13:12:09;;;;;;;;;;;;;;;;;;5107404;28;19916;-79
2022/12/21 13:14:55;;;;;;;;;;;;;;;;;;5117197;27;19927;-79
2022/12/21 13:17:42;;;;;;;;;;;;;;;;;;5098936;27;19922;-79
2022/12/21 13:20:28;;;;;;;;;;;;;;;;;;5098354;27;19924;-81
2022/12/21 13:23:15;;;;;;;;;;;;;;;;;;5099421;28;19916;-80
2022/12/21 13:26:02;;;;;;;;;;;;;;;;;;5097641;28;19919;-81
2022/12/21 13:28:48;;;;;;;;;;;;;;;;;;5103927;28;19926;-80
2022/12/21 13:31:35;;;;;;;;;;;;;;;;;;5109718;28;19930;-80
2022/12/21 13:34:21;;;;;;;;;;;;;;;;;;5107530;28;19915;-80
2022/12/21 13:37:08;;;;;;;;;;;;;;;;;;5106233;28;19912;-80
2022/12/21 13:39:54;;;;;;;;;;;;;;;;;;5089341;28;19923;-80
2022/12/21 13:42:41;;;;;;;;;;;;;;;;;;5103512;28;19923;-81
2022/12/21 13:45:27;;;;;;;;;;;;;;;;;;5106985;27;19915;-81
2022/12/21 13:48:14;;;;;;;;;;;;;;;;;;5091470;28;19920;-78
2022/12/21 13:51:01;;;;;;;;;;;;;;;;;;5103988;27;19914;-79
2022/12/21 13:53:47;;;;;;;;;;;;;;;;;;5097757;28;19915;-78
2022/12/21 13:56:34;;;;;;;;;;;;;;;;;;5104093;28;20265;-79
2022/12/21 13:59:20;;;;;;;;;;;;;;;;;;5098869;28;19923;-78
2022/12/21 14:02:06;;;;;;;;;;;;;;;;;;5112348;27;19916;-78
2022/12/21 14:04:53;;;;;;;;;;;;;;;;;;5099533;28;20393;-79
2022/12/21 14:07:39;;;;;;;;;;;;;;;;;;5100661;28;19912;-81
2022/12/21 14:10:26;;;;;;;;;;;;;;;;;;5098423;28;19908;-78
2022/12/21 14:13:22;;;;;;;;;;;;;;;;;;;;;
2022/12/21 14:16:09;;;;;;;;;;;;;;;;;;5095895;28;19907;-79
2022/12/21 14:18:56;;;;;;;;;;;;;;;;;;5084144;28;20468;-80
2022/12/21 14:21:42;;;;;;;;;;;;;;;;;;5090151;27;20037;-79
2022/12/21 14:24:29;;;;;;;;;;;;;;;;;;5098628;27;20217;-80
2022/12/21 14:27:16;;;;;;;;;;;;;;;;;;5092598;28;19915;-79
2022/12/21 14:30:02;;;;;;;;;;;;;;;;;;5094677;28;19916;-81
2022/12/21 14:32:49;;;;;;;;;;;;;;;;;;5099415;28;20313;-80
2022/12/21 14:35:35;;;;;;;;;;;;;;;;;;5095117;28;19912;-80
2022/12/21 14:38:22;;;;;;;;;;;;;;;;;;5098766;27;19912;-80
2022/12/21 14:41:08;;;;;;;;;;;;;;;;;;5101219;28;19924;-80
2022/12/21 14:43:54;;;;;;;;;;;;;;;;;;5095333;27;20518;-79
2022/12/21 14:46:41;;;;;;;;;;;;;;;;;;5094351;27;19916;-80
2022/12/21 14:49:27;;;;;;;;;;;;;;;;;;5098270;28;20300;-81
2022/12/21 14:52:14;;;;;;;;;;;;;;;;;;5095854;28;19919;-82
2022/12/21 14:55:00;;;;;;;;;;;;;;;;;;5097975;27;19907;-79
2022/12/21 14:57:47;;;;;;;;;;;;;;;;;;5092023;28;19923;-79
2022/12/21 15:00:33;;;;;;;;;;;;;;;;;;5095146;28;19924;-78
2022/12/21 15:03:20;;;;;;;;;;;;;;;;;;5094752;28;19932;-79
2022/12/21 15:06:07;;;;;;;;;;;;;;;;;;5094388;28;19912;-78
2022/12/21 15:08:54;;;;;;;;;;;;;;;;;;5098448;28;20277;-79
2022/12/21 15:11:41;;;;;;;;;;;;;;;;;;5104936;28;19934;-81
2022/12/21 15:14:27;;;;;;;;;;;;;;;;;;5096789;28;19908;-78
2022/12/21 15:17:14;;;;;;;;;;;;;;;;;;5099721;28;19920;-79
2022/12/21 15:20:00;;;;;;;;;;;;;;;;;;5091001;28;20391;-78
2022/12/21 15:22:47;;;;;;;;;;;;;;;;;;5096013;28;19926;-79
2022/12/21 15:25:34;;;;;;;;;;;;;;;;;;5093636;28;19920;-80
2022/12/21 15:28:21;;;;;;;;;;;;;;;;;;5095244;28;19916;-78
2022/12/21 15:31:07;;;;;;;;;;;;;;;;;;5103495;28;20302;-79
2022/12/21 15:33:54;;;;;;;;;;;;;;;;;;5093239;28;19931;-83
2022/12/21 15:36:50;;;;;;;;;;;;;;;;;;5099404;28;19920;-79
2022/12/21 15:39:37;;;;;;;;;;;;;;;;;;5096173;28;19920;-80
2022/12/21 15:42:23;;;;;;;;;;;;;;;;;;5097836;28;19930;-79
2022/12/21 15:45:09;;;;;;;;;;;;;;;;;;5098490;28;19919;-79
2022/12/21 15:47:56;;;;;;;;;;;;;;;;;;5102818;28;20271;-80
2022/12/21 15:50:42;;;;;;;;;;;;;;;;;;5097339;28;19908;-79
2022/12/21 15:53:30;;;;;;;;;;;;;;;;;;5102109;28;19937;-80
2022/12/21 15:56:16;;;;;;;;;;;;;;;;;;5094904;28;20300;-82
2022/12/21 15:59:03;;;;;;;;;;;;;;;;;;5102156;28;19912;-77
2022/12/21 16:01:49;;;;;;;;;;;;;;;;;;5086771;28;19920;-76
2022/12/21 16:04:38;;;;;;;;;;;;;;;;;;5102238;28;19916;-78
2022/12/21 16:07:24;;;;;;;;;;;;;;;;;;5100411;28;19916;-79
2022/12/21 16:10:11;;;;;;;;;;;;;;;;;;5104919;28;19915;-79
2022/12/21 16:12:57;;;;;;;;;;;;;;;;;;5099042;28;20127;-78
2022/12/21 16:15:44;;;;;;;;;;;;;;;;;;5094248;27;19920;-77
2022/12/21 16:18:30;;;;;;;;;;;;;;;;;;5101337;27;19915;-78
2022/12/21 16:21:16;;;;;;;;;;;;;;;;;;5099959;28;19948;-79
2022/12/21 16:24:03;;;;;;;;;;;;;;;;;;5099637;27;20286;-80
2022/12/21 16:26:50;;;;;;;;;;;;;;;;;;5098202;27;19912;-79
2022/12/21 16:29:36;;;;;;;;;;;;;;;;;;5102436;27;19915;-80
2022/12/21 16:32:23;;;;;;;;;;;;;;;;;;5107071;28;19912;-80
2022/12/21 16:35:09;;;;;;;;;;;;;;;;;;5096768;28;20393;-79
2022/12/21 16:37:56;;;;;;;;;;;;;;;;;;5096442;28;19920;-80
2022/12/21 16:40:42;;;;;;;;;;;;;;;;;;5098164;27;19970;-79
2022/12/21 16:43:30;;;;;;;;;;;;;;;;;;5102771;27;19919;-79
2022/12/21 16:46:17;;;;;;;;;;;;;;;;;;5085800;28;19983;-80
2022/12/21 16:49:04;;;;;;;;;;;;;;;;;;5102531;28;19938;-79
2022/12/21 16:51:50;;;;;;;;;;;;;;;;;;5097250;27;19916;-80
2022/12/21 16:54:37;;;;;;;;;;;;;;;;;;5096648;28;19912;-80
2022/12/21 16:57:23;;;;;;;;;;;;;;;;;;5076596;28;20370;-80
2022/12/21 17:00:10;;;;;;;;;;;;;;;;;;5107043;28;19920;-79
2022/12/21 17:02:56;;;;;;;;;;;;;;;;;;5117564;27;19916;-78
2022/12/21 17:05:44;;;;;;;;;;;;;;;;;;5095082;28;19915;-80
2022/12/21 17:08:31;;;;;;;;;;;;;;;;;;5104927;28;20260;-80
2022/12/21 17:11:17;;;;;;;;;;;;;;;;;;5100055;28;19918;-79
2022/12/21 17:14:04;;;;;;;;;;;;;;;;;;5102773;28;19916;-79
2022/12/21 17:16:50;;;;;;;;;;;;;;;;;;5102822;28;19939;-80
2022/12/21 17:19:37;;;;;;;;;;;;;;;;;;5093528;28;20383;-79
2022/12/21 17:22:25;;;;;;;;;;;;;;;;;;5098487;28;20029;-80
2022/12/21 17:25:12;;;;;;;;;;;;;;;;;;5103408;28;19926;-79
2022/12/21 17:27:59;;;;;;;;;;;;;;;;;;5100472;27;19915;-80
2022/12/21 17:30:45;;;;;;;;;;;;;;;;;;5100501;27;19916;-80
2022/12/21 17:33:32;;;;;;;;;;;;;;;;;;5098320;28;19916;-80
2022/12/21 17:36:18;;;;;;;;;;;;;;;;;;5098387;28;19923;-79
2022/12/21 17:39:05;;;;;;;;;;;;;;;;;;5078350;28;19916;-79
2022/12/21 17:41:51;;;;;;;;;;;;;;;;;;5096980;28;19927;-80
2022/12/21 17:44:39;;;;;;;;;;;;;;;;;;5100295;28;20398;-79
2022/12/21 17:47:26;;;;;;;;;;;;;;;;;;5100113;28;20369;-80
2022/12/21 17:50:12;;;;;;;;;;;;;;;;;;5107359;27;19919;-79
2022/12/21 17:52:59;;;;;;;;;;;;;;;;;;5101242;27;20299;-79
2022/12/21 17:55:46;;;;;;;;;;;;;;;;;;5092923;28;19919;-78
2022/12/21 17:58:32;;;;;;;;;;;;;;;;;;5112210;28;19907;-80
2022/12/21 18:01:20;;;;;;;;;;;;;;;;;;5094701;27;19917;-79
2022/12/21 18:04:06;;;;;;;;;;;;;;;;;;5090926;28;19939;-80
2022/12/21 18:06:53;;;;;;;;;;;;;;;;;;5094851;28;19912;-79
2022/12/21 18:09:39;;;;;;;;;;;;;;;;;;5102169;28;19922;-79
2022/12/21 18:12:26;;;;;;;;;;;;;;;;;;5106084;28;19912;-77
2022/12/21 18:15:12;;;;;;;;;;;;;;;;;;5098672;28;19923;-80
2022/12/21 18:17:59;;;;;;;;;;;;;;;;;;5099909;28;19931;-81
2022/12/21 18:20:49;;;;;;;;;;;;;;;;;;5094722;27;20368;-84
2022/12/21 18:23:36;;;;;;;;;;;;;;;;;;5099035;27;19918;-80
2022/12/21 18:26:23;;;;;;;;;;;;;;;;;;5093087;28;21030;-82
2022/12/21 18:29:09;;;;;;;;;;;;;;;;;;5092587;28;19916;-81
2022/12/21 18:31:56;;;;;;;;;;;;;;;;;;5089807;28;19912;-78
2022/12/21 18:34:43;;;;;;;;;;;;;;;;;;5092280;28;19912;-79
2022/12/21 18:37:30;;;;;;;;;;;;;;;;;;5091007;28;19918;-80
2022/12/21 18:40:16;;;;;;;;;;;;;;;;;;5082072;28;19920;-81
2022/12/21 18:43:03;;;;;;;;;;;;;;;;;;5089084;28;19920;-80
2022/12/21 18:45:50;;;;;;;;;;;;;;;;;;5080524;28;19923;-79
2022/12/21 18:48:36;;;;;;;;;;;;;;;;;;5104952;28;19915;-78
2022/12/21 18:51:22;;;;;;;;;;;;;;;;;;5091386;28;20290;-80
2022/12/21 18:54:09;;;;;;;;;;;;;;;;;;5097575;27;19915;-79
2022/12/21 18:56:55;;;;;;;;;;;;;;;;;;5079975;28;19912;-79
2022/12/21 18:59:42;;;;;;;;;;;;;;;;;;5096008;28;19920;-79
2022/12/21 19:02:28;;;;;;;;;;;;;;;;;;5090095;28;19919;-80
2022/12/21 19:05:15;;;;;;;;;;;;;;;;;;5099519;27;19916;-77
2022/12/21 19:08:01;;;;;;;;;;;;;;;;;;5103386;28;19923;-76
2022/12/21 19:10:48;;;;;;;;;;;;;;;;;;5100714;27;19923;-77